createdAt,value
2022-08-05T00:02:07.306Z,6.28
2022-08-05T00:04:37.214Z,5.93
2022-08-05T00:07:26.920Z,6.53
2022-08-05T00:09:56.462Z,9.00
2022-08-05T00:12:28.699Z,7.50
2022-08-05T00:14:58.317Z,4.25
2022-08-05T00:17:27.946Z,5.80
2022-08-05T00:20:01.986Z,5.47
2022-08-05T00:22:32.710Z,6.10
2022-08-05T00:25:02.338Z,8.15
2022-08-05T00:27:42.882Z,5.60
2022-08-05T00:30:13.589Z,4.88
2022-08-05T00:32:43.237Z,5.13
2022-08-05T00:35:13.019Z,5.18
2022-08-05T00:37:52.741Z,3.78
2022-08-05T00:40:27.206Z,5.70
2022-08-05T00:43:07.587Z,5.72
2022-08-05T00:45:38.412Z,5.15
2022-08-05T00:48:10.282Z,4.00
2022-08-05T00:50:41.331Z,5.35
2022-08-05T00:54:01.110Z,3.58
2022-08-05T00:56:04.040Z,6.25
2022-08-05T00:58:36.336Z,5.28
2022-08-05T01:01:08.674Z,5.97
2022-08-05T01:03:38.894Z,7.30
2022-08-05T01:06:11.190Z,6.68
2022-08-05T01:08:44.846Z,6.53
2022-08-05T01:11:22.380Z,6.53
2022-08-05T01:14:08.719Z,6.93
2022-08-05T01:19:30.400Z,5.95
2022-08-05T01:22:28.960Z,7.63
2022-08-05T01:25:40.704Z,6.28
2022-08-05T01:28:29.932Z,7.10
2022-08-05T01:31:04.317Z,4.00
2022-08-05T01:33:37.896Z,6.93
2022-08-05T01:36:16.296Z,6.75
2022-08-05T01:38:48.460Z,7.95
2022-08-05T01:41:21.882Z,8.32
2022-08-05T01:43:54.445Z,6.00
2022-08-05T01:46:43.161Z,6.88
2022-08-05T01:49:22.798Z,5.28
2022-08-05T01:51:53.666Z,4.88
2022-08-05T01:54:25.707Z,7.38
2022-08-05T01:58:10.896Z,9.00
2022-08-05T01:59:51.382Z,6.22
2022-08-05T02:02:26.110Z,6.50
2022-08-05T02:05:01.416Z,5.60
2022-08-05T02:07:33.744Z,6.18
2022-08-05T02:10:04.269Z,8.93
2022-08-05T02:12:43.164Z,6.80
2022-08-05T02:15:19.622Z,5.05
2022-08-05T02:18:32.359Z,7.03
2022-08-05T02:20:47.308Z,6.57
2022-08-05T02:23:22.396Z,5.38
2022-08-05T02:25:52.805Z,6.80
2022-08-05T02:28:29.168Z,11.70
2022-08-05T02:31:06.049Z,6.22
2022-08-05T02:33:42.081Z,6.57
2022-08-05T02:36:16.037Z,8.77
2022-08-05T02:38:53.646Z,11.50
2022-08-05T02:41:28.596Z,10.00
2022-08-05T02:44:11.200Z,9.60
2022-08-05T02:46:58.570Z,6.95
2022-08-05T02:49:37.162Z,8.82
2022-08-05T02:52:11.515Z,7.70
2022-08-05T02:58:11.929Z,9.75
2022-08-05T03:00:12.558Z,9.75
2022-08-05T03:02:47.170Z,9.43
2022-08-05T03:05:21.839Z,12.20
2022-08-05T03:08:09.487Z,14.50
2022-08-05T03:10:39.393Z,10.93
2022-08-05T03:13:16.833Z,13.98
2022-08-05T03:15:47.307Z,17.45
2022-08-05T03:18:30.115Z,17.23
2022-08-05T03:21:00.383Z,23.38
2022-08-05T03:23:30.140Z,24.40
2022-08-05T03:26:04.449Z,28.38
2022-08-05T03:28:50.379Z,24.95
2022-08-05T03:31:55.607Z,26.48
2022-08-05T03:34:13.888Z,31.08
2022-08-05T03:36:43.792Z,24.05
2022-08-05T03:39:20.201Z,26.13
2022-08-05T03:41:57.217Z,27.25
2022-08-05T03:44:29.121Z,29.40
2022-08-05T03:46:58.793Z,31.20
2022-08-05T03:49:52.027Z,29.83
2022-08-05T03:52:49.352Z,31.25
2022-08-05T03:56:01.438Z,28.50
2022-08-05T03:58:08.354Z,29.35
2022-08-05T04:00:41.897Z,33.38
2022-08-05T04:03:15.040Z,30.75
2022-08-05T04:06:01.052Z,28.38
2022-08-05T04:08:36.216Z,30.40
2022-08-05T04:11:08.644Z,29.88
2022-08-05T04:13:49.676Z,30.13
2022-08-05T04:16:25.328Z,31.48
2022-08-05T04:19:02.742Z,30.52
2022-08-05T04:22:10.007Z,30.73
2022-08-05T04:24:32.686Z,32.00
2022-08-05T04:27:02.302Z,29.13
2022-08-05T04:29:32.183Z,30.33
2022-08-05T04:32:02.427Z,32.25
2022-08-05T04:34:34.552Z,30.67
2022-08-05T04:37:08.459Z,33.58
2022-08-05T04:39:39.171Z,34.25
2022-08-05T04:42:10.769Z,36.28
2022-08-05T04:44:41.681Z,33.45
2022-08-05T04:47:13.651Z,31.88
2022-08-05T04:50:02.026Z,33.55
2022-08-05T04:52:38.985Z,35.78
2022-08-05T04:55:14.442Z,35.38
2022-08-05T04:57:47.776Z,36.35
2022-08-05T05:00:23.519Z,34.50
2022-08-05T05:02:53.760Z,35.25
2022-08-05T05:05:28.682Z,31.33
2022-08-05T05:08:03.528Z,30.83
2022-08-05T05:10:34.621Z,31.20
2022-08-05T05:13:05.068Z,29.92
2022-08-05T05:15:59.044Z,31.15
2022-08-05T05:18:31.601Z,31.17
2022-08-05T05:21:05.532Z,24.58
2022-08-05T05:24:02.111Z,28.60
2022-08-05T05:26:28.778Z,25.70
2022-08-05T05:29:14.411Z,26.00
2022-08-05T05:31:46.266Z,21.67
2022-08-05T05:34:21.177Z,29.02
2022-08-05T05:36:55.476Z,22.67
2022-08-05T05:39:31.683Z,23.00
2022-08-05T05:42:04.768Z,25.65
2022-08-05T05:44:36.647Z,24.05
2022-08-05T05:47:21.236Z,22.00
2022-08-05T05:49:56.639Z,26.73
2022-08-05T05:52:33.192Z,23.60
2022-08-05T05:55:13.551Z,24.27
2022-08-05T05:57:53.016Z,22.52
2022-08-05T06:00:27.604Z,23.38
2022-08-05T06:03:01.420Z,27.60
2022-08-05T06:05:31.911Z,26.77
2022-08-05T06:08:02.290Z,21.85
2022-08-05T06:10:37.560Z,25.10
2022-08-05T06:13:18.863Z,22.80
2022-08-05T06:16:29.280Z,27.10
2022-08-05T06:18:39.354Z,27.25
2022-08-05T06:21:18.563Z,28.05
2022-08-05T06:23:49.789Z,26.98
2022-08-05T06:26:24.216Z,26.88
2022-08-05T06:28:54.712Z,26.95
2022-08-05T06:31:32.168Z,25.33
2022-08-05T06:34:07.634Z,25.48
2022-08-05T06:36:57.413Z,29.35
2022-08-05T06:39:28.584Z,26.13
2022-08-05T06:42:04.643Z,27.10
2022-08-05T06:44:34.793Z,29.25
2022-08-05T06:47:04.391Z,29.02
2022-08-05T06:50:00.863Z,28.50
2022-08-05T06:52:36.609Z,24.67
2022-08-05T06:55:08.502Z,25.63
2022-08-05T06:58:02.768Z,28.02
2022-08-05T07:00:32.843Z,22.50
2022-08-05T07:03:03.255Z,25.50
2022-08-05T07:05:41.295Z,28.45
2022-08-05T07:08:11.279Z,25.58
2022-08-05T07:10:52.899Z,26.40
2022-08-05T07:13:57.568Z,20.95
2022-08-05T07:17:58.678Z,24.17
2022-08-05T07:20:16.453Z,24.40
2022-08-05T07:22:28.116Z,27.85
2022-08-05T07:25:23.257Z,19.13
2022-08-05T07:27:58.373Z,23.80
2022-08-05T07:30:39.075Z,29.85
2022-08-05T07:33:16.007Z,32.75
2022-08-05T07:36:02.249Z,30.63
2022-08-05T07:38:43.412Z,32.17
2022-08-05T07:42:09.232Z,39.85
2022-08-05T07:44:18.660Z,46.37
2022-08-05T07:46:51.851Z,47.70
2022-08-05T07:49:22.011Z,52.13
2022-08-05T07:51:54.868Z,46.05
2022-08-05T07:54:30.233Z,50.47
2022-08-05T07:57:41.334Z,49.00
2022-08-05T07:59:51.144Z,42.08
2022-08-05T08:02:30.912Z,41.03
2022-08-05T08:05:01.512Z,43.20
2022-08-05T08:07:39.660Z,45.63
2022-08-05T08:10:21.312Z,40.47
2022-08-05T08:12:51.082Z,41.92
2022-08-05T08:16:33.387Z,43.55
2022-08-05T08:18:14.397Z,37.88
2022-08-05T08:24:02.398Z,39.00
2022-08-05T08:26:26.522Z,34.50
2022-08-05T08:29:02.317Z,32.75
2022-08-05T08:31:48.601Z,32.78
2022-08-05T08:34:30.808Z,33.13
2022-08-05T08:37:03.220Z,31.40
2022-08-05T08:39:37.579Z,27.67
2022-08-05T08:42:27.582Z,24.27
2022-08-05T08:45:23.520Z,21.73
2022-08-05T08:48:13.054Z,22.70
2022-08-05T08:51:22.493Z,22.90
2022-08-05T08:56:06.584Z,17.85
2022-08-05T08:58:37.491Z,17.05
2022-08-05T09:01:17.144Z,18.95
2022-08-05T09:03:54.373Z,18.60
2022-08-05T09:06:32.171Z,15.52
2022-08-05T09:09:07.384Z,13.23
2022-08-05T09:11:51.671Z,16.75
2022-08-05T09:14:56.576Z,17.58
2022-08-05T09:17:15.915Z,17.08
2022-08-05T09:20:08.482Z,16.15
2022-08-05T09:23:18.697Z,14.48
2022-08-05T09:26:00.898Z,18.08
2022-08-05T09:28:34.076Z,17.07
2022-08-05T09:31:43.687Z,14.73
2022-08-05T09:33:59.037Z,13.57
2022-08-05T09:36:45.952Z,18.33
2022-08-05T09:39:41.961Z,14.40
2022-08-05T09:42:23.391Z,11.02
2022-08-05T09:45:17.895Z,10.70
2022-08-05T09:47:56.237Z,12.85
2022-08-05T09:50:44.599Z,13.00
2022-08-05T09:53:25.727Z,13.35
2022-08-05T09:56:03.917Z,7.95
2022-08-05T09:58:35.419Z,11.60
2022-08-05T10:01:13.744Z,9.82
2022-08-05T10:04:00.312Z,9.32
2022-08-05T10:06:30.918Z,9.27
2022-08-05T10:09:27.286Z,11.25
2022-08-05T10:12:18.891Z,10.30
2022-08-05T10:15:20.634Z,11.30
2022-08-05T10:18:09.124Z,9.40
2022-08-05T10:20:41.739Z,9.60
2022-08-05T10:23:34.169Z,14.27
2022-08-05T10:26:04.937Z,14.90
2022-08-05T10:28:39.624Z,11.73
2022-08-05T10:32:50.668Z,11.98
2022-08-05T10:34:01.511Z,11.77
2022-08-05T10:36:32.272Z,9.00
2022-08-05T10:39:10.400Z,8.35
2022-08-05T10:41:50.421Z,7.78
2022-08-05T10:44:23.639Z,7.68
2022-08-05T10:46:56.459Z,6.55
2022-08-05T10:49:33.400Z,11.18
2022-08-05T10:52:46.960Z,9.80
2022-08-05T10:55:19.310Z,9.82
2022-08-05T10:57:51.376Z,5.00
2022-08-05T11:00:26.393Z,6.45
2022-08-05T11:03:25.285Z,6.45
2022-08-05T11:06:16.210Z,7.00
2022-08-05T11:09:16.797Z,4.90
2022-08-05T11:11:53.378Z,4.88
2022-08-05T11:14:57.638Z,6.18
2022-08-05T11:18:00.520Z,8.10
2022-08-05T11:23:33.321Z,5.45
2022-08-05T11:26:32.134Z,8.23
2022-08-05T11:29:06.906Z,5.38
2022-08-05T11:31:54.345Z,7.55
2022-08-05T11:34:51.393Z,10.38
2022-08-05T11:38:28.730Z,8.27
2022-08-05T11:41:03.504Z,8.05
2022-08-05T11:44:04.462Z,7.88
2022-08-05T11:46:36.414Z,6.80
2022-08-05T11:49:10.040Z,5.22
2022-08-05T11:51:49.137Z,5.28
2022-08-05T11:54:33.633Z,5.20
2022-08-05T11:57:07.971Z,6.15
2022-08-05T11:59:50.205Z,5.45
2022-08-05T12:02:29.726Z,4.75
2022-08-05T12:05:07.637Z,5.70
2022-08-05T12:08:09.628Z,9.82
2022-08-05T12:10:45.000Z,5.05
2022-08-05T12:13:28.042Z,8.55
2022-08-05T12:16:14.775Z,5.82
2022-08-05T12:18:49.305Z,5.70
2022-08-05T12:21:24.755Z,6.20
2022-08-05T12:26:38.697Z,7.90
2022-08-05T12:29:15.898Z,6.50
2022-08-05T12:31:53.189Z,6.35
2022-08-05T12:34:28.277Z,7.65
2022-08-05T12:36:59.734Z,4.38
2022-08-05T12:39:37.083Z,5.65
2022-08-05T12:42:14.621Z,5.68
2022-08-05T12:44:45.055Z,5.60
2022-08-05T12:47:17.230Z,4.88
2022-08-05T12:50:03.725Z,3.73
2022-08-05T12:52:39.154Z,4.30
2022-08-05T12:55:26.154Z,5.93
2022-08-05T12:58:50.216Z,4.07
2022-08-05T13:02:02.290Z,3.42
2022-08-05T13:03:42.145Z,4.28
2022-08-05T13:06:16.481Z,6.15
2022-08-05T13:11:25.316Z,3.80
2022-08-05T13:14:24.550Z,5.38
2022-08-05T13:17:08.977Z,5.43
2022-08-05T13:19:51.125Z,4.05
2022-08-05T13:22:27.943Z,7.22
2022-08-05T13:25:05.170Z,3.90
2022-08-05T13:27:39.927Z,3.88
2022-08-05T13:30:34.757Z,4.13
2022-08-05T13:33:02.233Z,3.50
2022-08-05T13:35:47.176Z,4.18
2022-08-05T13:38:30.552Z,4.85
2022-08-05T13:41:01.238Z,6.13
2022-08-05T13:43:43.387Z,4.82
2022-08-05T13:46:14.175Z,4.78
2022-08-05T13:48:57.741Z,3.45
2022-08-05T13:51:36.557Z,3.47
2022-08-05T13:54:12.247Z,4.63
2022-08-05T13:56:45.163Z,4.37
2022-08-05T13:59:27.433Z,6.55
2022-08-05T14:02:01.470Z,4.70
2022-08-05T14:04:49.637Z,5.13
2022-08-05T14:07:25.873Z,3.40
2022-08-05T14:10:12.896Z,4.22
2022-08-05T14:12:48.626Z,5.00
2022-08-05T14:16:08.157Z,3.78
2022-08-05T14:18:15.025Z,4.63
2022-08-05T14:20:48.828Z,4.03
2022-08-05T14:23:24.537Z,5.47
2022-08-05T14:25:59.116Z,3.80
2022-08-05T14:28:29.703Z,6.43
2022-08-05T14:31:02.883Z,5.75
2022-08-05T14:33:59.593Z,4.13
2022-08-05T14:36:23.533Z,4.85
2022-08-05T14:38:54.177Z,8.68
2022-08-05T14:41:23.964Z,6.32
2022-08-05T14:44:02.168Z,4.57
2022-08-05T14:46:41.704Z,3.40
2022-08-05T14:49:12.018Z,3.85
2022-08-05T14:51:43.236Z,3.30
2022-08-05T14:54:28.141Z,3.05
2022-08-05T14:57:00.305Z,2.88
2022-08-05T14:59:35.616Z,3.63
2022-08-05T15:02:14.992Z,3.58
2022-08-05T15:04:47.776Z,3.83
2022-08-05T15:08:08.704Z,4.53
2022-08-05T15:10:09.932Z,7.32
2022-08-05T15:13:00.343Z,7.35
2022-08-05T15:15:54.334Z,3.45
2022-08-05T15:18:22.028Z,4.15
2022-08-05T15:20:51.639Z,3.60
2022-08-05T15:23:21.485Z,3.47
2022-08-05T15:25:55.872Z,4.03
2022-08-05T15:28:28.171Z,5.63
2022-08-05T15:30:59.363Z,2.38
2022-08-05T15:34:04.848Z,5.25
2022-08-05T15:36:25.715Z,4.85
2022-08-05T15:40:42.699Z,3.53
2022-08-05T15:41:57.311Z,5.78
2022-08-05T15:44:28.331Z,4.45
2022-08-05T15:47:00.442Z,4.00
2022-08-05T15:49:48.105Z,3.13
2022-08-05T15:52:51.691Z,4.38
2022-08-05T15:55:15.605Z,2.45
2022-08-05T15:57:49.079Z,2.03
2022-08-05T16:00:26.518Z,3.23
2022-08-05T16:03:02.557Z,4.32
2022-08-05T16:05:35.267Z,2.40
2022-08-05T16:08:08.922Z,3.17
2022-08-05T16:10:39.042Z,2.95
2022-08-05T16:13:11.072Z,2.08
2022-08-05T16:15:40.795Z,2.58
2022-08-05T16:18:12.344Z,2.53
2022-08-05T16:20:46.767Z,2.90
2022-08-05T16:23:16.374Z,1.95
2022-08-05T16:25:46.167Z,1.25
2022-08-05T16:28:18.084Z,3.70
2022-08-05T16:30:47.686Z,1.77
2022-08-05T16:33:20.007Z,1.92
2022-08-05T16:35:53.054Z,1.30
2022-08-05T16:38:27.996Z,3.10
2022-08-05T16:41:00.122Z,1.92
2022-08-05T16:43:33.109Z,1.20
2022-08-05T16:46:23.961Z,2.67
2022-08-05T16:48:55.680Z,0.93
2022-08-05T16:51:31.061Z,1.95
2022-08-05T16:54:16.246Z,2.55
2022-08-05T16:56:47.122Z,1.85
2022-08-05T16:59:22.312Z,2.25
2022-08-05T17:01:54.759Z,1.95
2022-08-05T17:04:28.219Z,3.90
2022-08-05T17:07:03.596Z,3.42
2022-08-05T17:09:59.429Z,3.20
2022-08-05T17:12:51.486Z,2.80
2022-08-05T17:15:19.585Z,2.15
2022-08-05T17:18:02.234Z,2.28
2022-08-05T17:20:32.047Z,1.42
2022-08-05T17:23:04.197Z,3.20
2022-08-05T17:25:40.387Z,3.42
2022-08-05T17:28:11.034Z,0.95
2022-08-05T17:30:52.162Z,1.10
2022-08-05T17:33:23.217Z,3.10
2022-08-05T17:36:09.076Z,1.73
2022-08-05T17:38:42.435Z,2.50
2022-08-05T17:42:17.351Z,3.13
2022-08-05T17:44:02.164Z,2.75
2022-08-05T17:46:32.936Z,5.03
2022-08-05T17:49:02.493Z,2.97
2022-08-05T17:51:40.307Z,3.00
2022-08-05T17:54:12.959Z,1.60
2022-08-05T17:56:44.725Z,2.50
2022-08-05T17:59:22.581Z,3.45
2022-08-05T18:01:52.351Z,1.50
2022-08-05T18:04:27.836Z,2.00
2022-08-05T18:07:00.546Z,1.67
2022-08-05T18:09:59.848Z,5.07
2022-08-05T18:12:24.496Z,2.13
2022-08-05T18:14:54.758Z,1.35
2022-08-05T18:17:59.270Z,1.45
2022-08-05T18:20:15.441Z,1.80
2022-08-05T18:22:53.831Z,2.63
2022-08-05T18:25:33.163Z,1.90
2022-08-05T18:28:05.018Z,1.70
2022-08-05T18:30:35.709Z,8.75
2022-08-05T18:33:13.522Z,1.35
2022-08-05T18:36:00.583Z,2.13
2022-08-05T18:38:33.385Z,2.15
2022-08-05T18:41:59.548Z,1.50
2022-08-05T18:43:57.023Z,1.90
2022-08-05T18:46:35.410Z,2.15
2022-08-05T18:49:30.385Z,3.47
2022-08-05T18:52:12.862Z,2.85
2022-08-05T18:54:45.989Z,2.50
2022-08-05T18:57:19.740Z,3.40
2022-08-05T19:00:01.654Z,2.47
2022-08-05T19:02:33.000Z,1.52
2022-08-05T19:06:06.159Z,1.48
2022-08-05T19:07:53.037Z,2.53
2022-08-05T19:10:27.868Z,1.50
2022-08-05T19:13:00.784Z,1.83
2022-08-05T19:18:22.670Z,1.15
2022-08-05T19:20:53.890Z,2.05
2022-08-05T19:24:07.299Z,2.75
2022-08-05T19:26:13.911Z,1.30
2022-08-05T19:28:46.879Z,2.47
2022-08-05T19:33:55.987Z,1.65
2022-08-05T19:36:26.773Z,2.42
2022-08-05T19:39:01.037Z,1.70
2022-08-05T19:42:05.783Z,1.65
2022-08-05T19:44:23.303Z,2.35
2022-08-05T19:46:58.894Z,3.53
2022-08-05T19:49:28.683Z,2.20
2022-08-05T19:52:09.326Z,4.13
2022-08-05T19:54:50.553Z,3.17
2022-08-05T19:57:48.984Z,2.65
2022-08-05T20:00:14.682Z,2.80
2022-08-05T20:02:44.238Z,5.18
2022-08-05T20:05:16.756Z,2.60
2022-08-05T20:07:58.899Z,4.78
2022-08-05T20:10:29.048Z,4.70
2022-08-05T20:12:58.625Z,3.72
2022-08-05T20:15:52.253Z,3.25
2022-08-05T20:18:32.852Z,3.42
2022-08-05T20:21:04.432Z,4.20
2022-08-05T20:23:39.653Z,4.10
2022-08-05T20:26:23.441Z,5.13
2022-08-05T20:28:57.006Z,5.03
2022-08-05T20:31:42.894Z,2.97
2022-08-05T20:34:20.175Z,9.98
2022-08-05T20:36:50.014Z,4.85
2022-08-05T20:39:19.704Z,3.28
2022-08-05T20:41:49.453Z,2.97
2022-08-05T20:44:30.621Z,5.10
2022-08-05T20:47:05.173Z,6.95
2022-08-05T20:49:39.661Z,4.20
2022-08-05T20:52:10.787Z,3.67
2022-08-05T20:54:43.398Z,2.63
2022-08-05T20:57:43.281Z,4.82
2022-08-05T21:00:40.325Z,3.00
2022-08-05T21:03:09.150Z,9.60
2022-08-05T21:05:53.465Z,9.00
2022-08-05T21:08:28.053Z,10.43
2022-08-05T21:11:09.315Z,12.68
2022-08-05T21:13:55.852Z,10.43
2022-08-05T21:16:30.026Z,8.07
2022-08-05T21:19:03.562Z,13.52
2022-08-05T21:21:43.702Z,13.00
2022-08-05T21:24:15.709Z,10.95
2022-08-05T21:26:58.497Z,13.40
2022-08-05T21:29:31.568Z,10.55
2022-08-05T21:32:02.845Z,11.85
2022-08-05T21:34:35.605Z,8.27
2022-08-05T21:37:05.402Z,11.57
2022-08-05T21:39:35.022Z,10.63
2022-08-05T21:42:30.757Z,7.40
2022-08-05T21:45:00.369Z,16.85
2022-08-05T21:47:55.604Z,9.23
2022-08-05T21:50:22.352Z,5.75
2022-08-05T21:52:51.979Z,6.72
2022-08-05T21:55:43.040Z,10.68
2022-08-05T21:58:17.137Z,5.25
2022-08-05T22:00:51.035Z,5.07
2022-08-05T22:03:52.273Z,4.00
2022-08-05T22:06:16.576Z,4.45
2022-08-05T22:08:52.920Z,3.33
2022-08-05T22:11:35.266Z,5.00
2022-08-05T22:14:34.695Z,3.65
2022-08-05T22:16:56.907Z,4.30
2022-08-05T22:20:00.615Z,3.38
2022-08-05T22:22:27.912Z,7.35
2022-08-05T22:25:18.067Z,4.93
2022-08-05T22:28:10.577Z,4.07
2022-08-05T22:30:44.250Z,4.40
2022-08-05T22:33:55.348Z,3.58
2022-08-05T22:36:16.348Z,6.35
2022-08-05T22:38:49.435Z,4.43
2022-08-05T22:42:04.316Z,3.03
2022-08-05T22:44:11.823Z,4.68
2022-08-05T22:46:41.942Z,4.72
2022-08-05T22:50:17.317Z,3.15
2022-08-05T22:52:15.531Z,4.03
2022-08-05T22:54:57.836Z,3.85
2022-08-05T22:57:27.413Z,5.93
2022-08-05T23:00:07.994Z,3.50
2022-08-05T23:02:46.621Z,3.15
2022-08-05T23:05:26.351Z,4.07
2022-08-05T23:07:56.571Z,2.30
2022-08-05T23:10:31.861Z,4.65
2022-08-05T23:13:01.841Z,3.58
2022-08-05T23:15:35.273Z,2.17
2022-08-05T23:18:11.735Z,4.28
2022-08-05T23:20:45.659Z,5.50
2022-08-05T23:23:15.280Z,4.20
2022-08-05T23:25:51.408Z,3.97
2022-08-05T23:28:28.994Z,5.20
2022-08-05T23:31:15.808Z,2.10
2022-08-05T23:34:06.208Z,4.40
2022-08-05T23:36:38.722Z,3.00
2022-08-05T23:39:17.544Z,4.10
2022-08-05T23:41:56.481Z,2.72
2022-08-05T23:44:31.054Z,6.30
2022-08-05T23:47:02.469Z,5.18
2022-08-05T23:49:45.626Z,3.33
2022-08-05T23:52:36.205Z,3.72
2022-08-05T23:55:19.829Z,2.30
2022-08-05T23:57:53.895Z,3.58
